createdAt,value
2022-09-06T00:00:31.712Z,57.50
2022-09-06T00:03:01.200Z,57.50
2022-09-06T00:05:30.883Z,57.60
2022-09-06T00:08:00.587Z,60.00
2022-09-06T00:10:29.623Z,60.80
2022-09-06T00:13:01.246Z,62.50
2022-09-06T00:15:29.691Z,66.10
2022-09-06T00:18:01.581Z,66.00
2022-09-06T00:20:31.389Z,64.20
2022-09-06T00:23:01.114Z,64.60
2022-09-06T00:25:30.121Z,63.30
2022-09-06T00:27:59.158Z,62.10
2022-09-06T00:30:28.923Z,62.60
2022-09-06T00:32:58.074Z,60.80
2022-09-06T00:35:29.044Z,60.40
2022-09-06T00:38:01.652Z,60.10
2022-09-06T00:40:33.680Z,59.00
2022-09-06T00:43:01.970Z,59.50
2022-09-06T00:45:32.471Z,59.50
2022-09-06T00:48:02.070Z,59.30
2022-09-06T00:50:32.009Z,59.20
2022-09-06T00:53:00.768Z,60.40
2022-09-06T00:55:29.281Z,60.00
2022-09-06T00:57:57.892Z,59.80
2022-09-06T01:00:26.322Z,59.30
2022-09-06T01:02:55.687Z,59.60
2022-09-06T01:05:29.148Z,62.30
2022-09-06T01:08:14.457Z,66.50
2022-09-06T01:11:08.011Z,76.50
2022-09-06T01:13:46.822Z,76.80
2022-09-06T01:16:24.127Z,74.00
2022-09-06T01:19:29.413Z,69.30
2022-09-06T01:22:10.642Z,70.90
2022-09-06T01:25:00.835Z,75.10
2022-09-06T01:28:02.950Z,75.10
2022-09-06T01:30:34.412Z,72.10
2022-09-06T01:33:11.830Z,71.60
2022-09-06T01:35:44.767Z,69.60
2022-09-06T01:38:14.535Z,67.80
2022-09-06T01:40:43.007Z,67.90
2022-09-06T01:43:17.867Z,65.70
2022-09-06T01:45:55.297Z,66.00
2022-09-06T01:48:31.628Z,65.40
2022-09-06T01:51:10.521Z,64.40
2022-09-06T01:53:55.424Z,64.20
2022-09-06T01:56:33.720Z,63.90
2022-09-06T01:59:27.080Z,63.50
2022-09-06T02:02:04.093Z,64.40
2022-09-06T02:04:37.924Z,64.40
2022-09-06T02:07:14.427Z,63.90
2022-09-06T02:09:45.775Z,63.70
2022-09-06T02:12:18.233Z,63.40
2022-09-06T02:14:53.979Z,63.40
2022-09-06T02:17:28.604Z,63.70
2022-09-06T02:20:00.217Z,63.60
2022-09-06T02:22:33.020Z,63.10
2022-09-06T02:25:04.226Z,63.00
2022-09-06T02:27:33.782Z,62.90
2022-09-06T02:30:04.086Z,64.10
2022-09-06T02:32:36.058Z,65.50
2022-09-06T02:35:10.515Z,64.50
2022-09-06T02:37:39.363Z,66.20
2022-09-06T02:40:09.054Z,66.40
2022-09-06T02:42:37.513Z,65.70
2022-09-06T02:45:08.187Z,65.30
2022-09-06T02:47:36.643Z,64.80
2022-09-06T02:50:05.025Z,64.40
2022-09-06T02:52:33.283Z,64.50
2022-09-06T02:55:02.765Z,65.30
2022-09-06T02:57:31.044Z,64.00
2022-09-06T02:59:59.257Z,65.10
2022-09-06T03:02:29.325Z,67.40
2022-09-06T03:04:57.639Z,71.20
2022-09-06T03:07:26.360Z,73.30
2022-09-06T03:09:57.116Z,72.40
2022-09-06T03:12:25.384Z,70.60
2022-09-06T03:14:55.074Z,69.30
2022-09-06T03:17:23.561Z,67.20
2022-09-06T03:19:53.431Z,66.60
2022-09-06T03:22:21.704Z,66.60
2022-09-06T03:24:50.012Z,66.90
2022-09-06T03:27:18.227Z,66.20
2022-09-06T03:29:46.560Z,65.40
2022-09-06T03:32:14.920Z,64.30
2022-09-06T03:34:43.379Z,64.30
2022-09-06T03:37:13.064Z,63.50
2022-09-06T03:39:41.449Z,63.40
2022-09-06T03:42:09.759Z,65.20
2022-09-06T03:44:38.099Z,64.90
2022-09-06T03:47:06.943Z,64.30
2022-09-06T03:49:35.203Z,63.30
2022-09-06T03:52:03.966Z,63.70
2022-09-06T03:54:33.780Z,63.80
2022-09-06T03:57:02.099Z,66.40
2022-09-06T03:59:30.553Z,66.90
2022-09-06T04:01:58.922Z,66.60
2022-09-06T04:04:27.363Z,66.00
2022-09-06T04:06:55.657Z,65.30
2022-09-06T04:09:24.059Z,63.90
2022-09-06T04:11:53.657Z,64.00
2022-09-06T04:14:21.944Z,63.50
2022-09-06T04:16:50.458Z,63.00
2022-09-06T04:19:18.862Z,63.30
2022-09-06T04:21:47.133Z,63.50
2022-09-06T04:24:15.503Z,63.20
2022-09-06T04:26:44.008Z,63.80
2022-09-06T04:29:13.723Z,63.90
2022-09-06T04:31:41.900Z,64.70
2022-09-06T04:34:10.220Z,64.70
2022-09-06T04:36:38.544Z,64.80
2022-09-06T04:39:06.989Z,65.00
2022-09-06T04:41:35.255Z,64.70
2022-09-06T04:44:03.883Z,64.70
2022-09-06T04:46:33.513Z,64.80
2022-09-06T04:49:01.800Z,65.00
2022-09-06T04:51:39.959Z,64.90
2022-09-06T04:54:08.276Z,68.00
2022-09-06T04:56:36.668Z,69.80
2022-09-06T04:59:04.968Z,72.30
2022-09-06T05:01:34.640Z,75.40
2022-09-06T05:04:03.427Z,72.80
2022-09-06T05:06:31.659Z,70.60
2022-09-06T05:08:59.915Z,68.60
2022-09-06T05:11:28.363Z,69.60
2022-09-06T05:13:56.575Z,67.80
2022-09-06T05:16:24.928Z,66.70
2022-09-06T05:18:54.627Z,66.40
2022-09-06T05:21:22.968Z,66.50
2022-09-06T05:23:54.323Z,66.10
2022-09-06T05:26:24.855Z,66.60
2022-09-06T05:28:53.063Z,69.80
2022-09-06T05:31:27.995Z,72.70
2022-09-06T05:33:58.647Z,76.70
2022-09-06T05:36:27.523Z,78.60
2022-09-06T05:38:57.733Z,78.70
2022-09-06T05:41:26.588Z,77.10
2022-09-06T05:43:54.882Z,74.10
2022-09-06T05:46:23.377Z,72.50
2022-09-06T05:48:56.024Z,71.40
2022-09-06T05:51:25.704Z,70.50
2022-09-06T05:53:53.986Z,69.80
2022-09-06T05:56:22.663Z,69.40
2022-09-06T05:58:50.920Z,70.00
2022-09-06T06:01:20.878Z,70.20
2022-09-06T06:03:53.378Z,70.50
2022-09-06T06:06:22.954Z,70.20
2022-09-06T06:08:53.258Z,70.00
2022-09-06T06:11:21.978Z,69.90
2022-09-06T06:13:50.957Z,69.90
2022-09-06T06:16:20.994Z,71.20
2022-09-06T06:18:52.269Z,70.60
2022-09-06T06:21:23.811Z,70.00
2022-09-06T06:23:55.530Z,71.40
2022-09-06T06:26:24.632Z,70.60
2022-09-06T06:28:53.438Z,70.70
2022-09-06T06:31:22.851Z,70.60
2022-09-06T06:33:51.749Z,71.50
2022-09-06T06:36:22.759Z,72.80
2022-09-06T06:38:55.655Z,72.30
2022-09-06T06:41:26.620Z,72.10
2022-09-06T06:43:55.778Z,72.20
2022-09-06T06:46:25.915Z,72.50
2022-09-06T06:48:55.778Z,70.30
2022-09-06T06:51:26.772Z,70.30
2022-09-06T06:53:57.922Z,69.70
2022-09-06T06:56:28.397Z,68.80
2022-09-06T06:58:58.498Z,68.90
2022-09-06T07:01:29.001Z,68.30
2022-09-06T07:03:58.159Z,68.60
2022-09-06T07:09:19.302Z,69.90
2022-09-06T07:11:48.924Z,69.60
2022-09-06T07:14:17.634Z,69.70
2022-09-06T07:16:46.247Z,71.10
2022-09-06T07:22:05.202Z,69.30
2022-09-06T07:24:35.911Z,68.70
2022-09-06T07:29:52.600Z,69.40
2022-09-06T07:32:21.210Z,69.20
2022-09-06T07:34:49.491Z,69.10
2022-09-06T07:37:17.837Z,69.40
2022-09-06T07:39:47.745Z,69.60
2022-09-06T07:42:16.872Z,70.90
2022-09-06T07:44:45.199Z,70.20
2022-09-06T07:53:10.800Z,69.80
2022-09-06T07:55:42.124Z,68.60
2022-09-06T07:58:11.058Z,68.30
2022-09-06T08:00:41.425Z,68.50
2022-09-06T08:03:10.269Z,68.50
2022-09-06T08:11:17.616Z,65.50
2022-09-06T08:13:46.336Z,65.80
2022-09-06T08:16:16.252Z,65.80
2022-09-06T08:18:45.436Z,65.40
2022-09-06T08:21:15.288Z,65.90
2022-09-06T08:23:48.649Z,64.90
2022-09-06T08:26:20.854Z,65.70
2022-09-06T08:28:49.155Z,65.80
2022-09-06T08:31:19.318Z,66.10
2022-09-06T08:33:47.774Z,66.20
2022-09-06T08:36:16.376Z,66.60
2022-09-06T08:38:45.710Z,67.30
2022-09-06T08:41:25.709Z,65.60
2022-09-06T08:46:54.106Z,64.00
2022-09-06T08:49:23.221Z,63.30
2022-09-06T08:52:15.729Z,64.00
2022-09-06T08:54:49.547Z,63.50
2022-09-06T08:57:35.026Z,64.60
2022-09-06T09:00:11.246Z,64.60
2022-09-06T09:02:45.651Z,64.70
2022-09-06T09:05:24.339Z,66.60
2022-09-06T09:08:05.301Z,65.90
2022-09-06T09:10:42.385Z,66.20
2022-09-06T09:13:23.428Z,66.50
2022-09-06T09:15:51.864Z,66.60
2022-09-06T09:18:24.788Z,66.50
2022-09-06T09:20:53.734Z,66.70
2022-09-06T09:23:22.209Z,66.90
2022-09-06T09:25:53.513Z,66.90
2022-09-06T09:28:25.207Z,67.10
2022-09-06T09:30:55.635Z,67.50
2022-09-06T09:33:26.899Z,66.40
2022-09-06T09:35:56.120Z,66.00
2022-09-06T09:38:27.041Z,66.30
2022-09-06T09:40:57.216Z,67.00
2022-09-06T09:43:30.971Z,66.70
2022-09-06T09:46:11.230Z,66.90
2022-09-06T09:48:40.152Z,66.60
2022-09-06T09:51:26.626Z,66.90
2022-09-06T09:53:57.018Z,66.60
2022-09-06T09:56:39.887Z,66.20
2022-09-06T09:59:22.990Z,66.00
2022-09-06T10:01:53.269Z,66.10
2022-09-06T10:04:45.710Z,65.80
2022-09-06T10:07:16.951Z,67.30
2022-09-06T10:09:48.112Z,65.20
2022-09-06T10:12:30.120Z,67.80
2022-09-06T10:15:06.984Z,68.20
2022-09-06T10:17:37.801Z,67.80
2022-09-06T10:20:09.359Z,64.90
2022-09-06T10:22:50.454Z,64.10
2022-09-06T10:25:39.525Z,66.90
2022-09-06T10:28:31.199Z,64.70
2022-09-06T10:31:35.271Z,66.10
2022-09-06T10:34:25.173Z,62.50
2022-09-06T10:37:03.579Z,61.70
2022-09-06T10:39:44.608Z,61.20
2022-09-06T10:42:23.922Z,62.10
2022-09-06T10:45:16.796Z,60.20
2022-09-06T10:47:59.479Z,60.60
2022-09-06T10:50:37.571Z,57.60
2022-09-06T10:53:10.407Z,58.30
2022-09-06T10:55:41.279Z,55.70
2022-09-06T11:00:47.754Z,55.60
2022-09-06T11:06:28.828Z,50.30
2022-09-06T11:09:03.770Z,49.00
2022-09-06T11:11:37.855Z,45.10
2022-09-06T11:14:11.466Z,42.80
2022-09-06T11:16:45.760Z,43.80
2022-09-06T11:19:21.573Z,42.80
2022-09-06T11:22:13.442Z,46.40
2022-09-06T11:25:00.996Z,45.10
2022-09-06T11:27:36.982Z,41.50
2022-09-06T11:30:07.268Z,44.70
2022-09-06T11:32:40.813Z,43.50
2022-09-06T11:35:21.640Z,40.70
2022-09-06T11:37:59.608Z,42.80
2022-09-06T11:40:30.056Z,39.90
2022-09-06T11:43:17.502Z,40.50
2022-09-06T11:45:48.806Z,38.40
2022-09-06T11:49:00.715Z,34.40
2022-09-06T11:51:49.264Z,33.10
2022-09-06T11:54:26.996Z,34.20
2022-09-06T11:57:01.012Z,33.30
2022-09-06T11:59:37.190Z,32.40
2022-09-06T12:02:08.019Z,33.40
2022-09-06T12:05:10.547Z,34.20
2022-09-06T12:08:30.417Z,35.30
2022-09-06T12:11:05.320Z,33.80
2022-09-06T12:13:42.634Z,31.00
2022-09-06T12:16:12.618Z,29.70
2022-09-06T12:18:59.106Z,31.50
2022-09-06T12:21:42.472Z,32.00
2022-09-06T12:24:50.878Z,34.40
2022-09-06T12:27:20.617Z,34.00
2022-09-06T12:29:58.272Z,35.30
2022-09-06T12:32:37.059Z,36.20
2022-09-06T12:37:57.408Z,35.90
2022-09-06T12:40:29.314Z,35.50
2022-09-06T12:42:58.469Z,35.00
2022-09-06T12:45:27.819Z,32.90
2022-09-06T12:48:08.636Z,31.80
2022-09-06T12:50:37.828Z,30.40
2022-09-06T12:53:23.366Z,31.00
2022-09-06T12:56:05.216Z,30.40
2022-09-06T12:58:34.237Z,30.10
2022-09-06T13:01:10.065Z,31.10
2022-09-06T13:03:41.822Z,32.30
2022-09-06T13:06:21.203Z,32.90
2022-09-06T13:08:54.635Z,33.10
2022-09-06T13:11:29.573Z,36.20
2022-09-06T13:13:58.165Z,37.90
2022-09-06T13:16:28.668Z,36.20
2022-09-06T13:19:11.593Z,35.40
2022-09-06T13:21:42.230Z,37.40
2022-09-06T13:24:20.799Z,37.60
2022-09-06T13:26:51.281Z,40.10
2022-09-06T13:29:27.318Z,39.50
2022-09-06T13:31:57.704Z,38.90
2022-09-06T13:34:28.195Z,40.00
2022-09-06T13:37:01.799Z,39.60
2022-09-06T13:39:32.785Z,39.20
2022-09-06T13:42:08.519Z,40.40
2022-09-06T13:44:38.789Z,39.60
2022-09-06T13:47:07.896Z,40.20
2022-09-06T13:49:36.146Z,41.80
2022-09-06T13:52:06.103Z,43.50
2022-09-06T13:54:34.920Z,44.20
2022-09-06T13:57:03.499Z,43.70
2022-09-06T13:59:33.297Z,43.40
2022-09-06T14:02:03.811Z,42.50
2022-09-06T14:04:32.664Z,41.30
2022-09-06T14:07:00.988Z,40.40
2022-09-06T14:09:29.621Z,39.20
2022-09-06T14:11:58.263Z,38.70
2022-09-06T14:14:27.039Z,39.50
2022-09-06T14:16:57.255Z,39.30
2022-09-06T14:19:25.683Z,39.20
2022-09-06T14:21:54.289Z,38.00
2022-09-06T14:24:22.637Z,39.80
2022-09-06T14:26:51.392Z,36.80
2022-09-06T14:29:19.809Z,35.50
2022-09-06T14:31:49.045Z,35.10
2022-09-06T14:34:18.938Z,35.80
2022-09-06T14:36:47.198Z,36.80
2022-09-06T14:39:15.568Z,37.40
2022-09-06T14:41:43.991Z,36.30
2022-09-06T14:44:12.382Z,36.30
2022-09-06T14:46:40.857Z,36.70
2022-09-06T14:49:11.294Z,36.30
2022-09-06T14:51:41.495Z,36.80
2022-09-06T14:54:11.678Z,37.10
2022-09-06T14:56:41.910Z,36.40
2022-09-06T14:59:10.888Z,36.10
2022-09-06T15:01:41.178Z,35.90
2022-09-06T15:04:11.845Z,36.90
2022-09-06T15:06:47.041Z,35.30
2022-09-06T15:09:16.328Z,34.90
2022-09-06T15:11:48.144Z,34.50
2022-09-06T15:14:18.636Z,35.10
2022-09-06T15:16:52.046Z,35.60
2022-09-06T15:19:24.458Z,35.30
2022-09-06T15:21:54.515Z,36.10
2022-09-06T15:24:23.158Z,35.70
2022-09-06T15:26:51.856Z,35.70
2022-09-06T15:29:20.575Z,35.40
2022-09-06T15:31:52.036Z,35.70
2022-09-06T15:34:23.480Z,35.60
2022-09-06T15:36:54.653Z,35.30
2022-09-06T15:39:23.606Z,36.30
2022-09-06T15:41:52.735Z,37.90
2022-09-06T15:44:22.503Z,36.80
2022-09-06T15:46:53.220Z,37.00
2022-09-06T15:49:27.774Z,36.80
2022-09-06T15:51:58.667Z,36.80
2022-09-06T15:54:41.432Z,37.40
2022-09-06T15:57:10.670Z,37.50
2022-09-06T15:59:40.523Z,36.00
2022-09-06T16:02:09.653Z,35.80
2022-09-06T16:04:38.073Z,36.70
2022-09-06T16:07:08.465Z,36.80
2022-09-06T16:09:37.320Z,36.40
2022-09-06T16:12:06.167Z,35.10
2022-09-06T16:14:35.787Z,35.50
2022-09-06T16:17:04.977Z,35.80
2022-09-06T16:19:33.845Z,35.60
2022-09-06T16:22:02.529Z,36.40
2022-09-06T16:24:33.127Z,34.10
2022-09-06T16:27:02.496Z,34.40
2022-09-06T16:29:31.890Z,34.50
2022-09-06T16:32:03.559Z,35.00
2022-09-06T16:34:32.031Z,35.50
2022-09-06T16:37:00.684Z,35.00
2022-09-06T16:39:29.146Z,35.00
2022-09-06T16:41:59.330Z,34.00
2022-09-06T16:44:28.547Z,34.50
2022-09-06T16:46:57.661Z,33.80
2022-09-06T16:49:26.235Z,33.80
2022-09-06T16:51:54.732Z,33.50
2022-09-06T16:54:23.187Z,33.80
2022-09-06T16:56:51.616Z,34.80
2022-09-06T16:59:21.892Z,34.10
2022-09-06T17:01:51.699Z,34.70
2022-09-06T17:04:20.265Z,35.70
2022-09-06T17:06:48.673Z,35.30
2022-09-06T17:09:19.239Z,35.10
2022-09-06T17:11:50.318Z,35.00
2022-09-06T17:14:20.607Z,35.90
2022-09-06T17:17:07.647Z,35.80
2022-09-06T17:19:38.034Z,35.50
2022-09-06T17:22:06.564Z,35.80
2022-09-06T17:24:35.109Z,35.90
2022-09-06T17:27:03.725Z,36.10
2022-09-06T17:29:33.723Z,35.60
2022-09-06T17:32:04.074Z,35.50
2022-09-06T17:34:32.725Z,36.70
2022-09-06T17:37:01.171Z,36.40
2022-09-06T17:39:29.605Z,36.30
2022-09-06T17:41:59.001Z,36.50
2022-09-06T17:44:28.627Z,36.60
2022-09-06T17:47:14.835Z,36.50
2022-09-06T17:49:43.422Z,37.00
2022-09-06T17:52:12.135Z,37.10
2022-09-06T17:54:40.561Z,36.10
2022-09-06T17:57:08.906Z,36.20
2022-09-06T17:59:38.489Z,37.60
2022-09-06T18:02:09.140Z,37.40
2022-09-06T18:04:37.583Z,37.40
2022-09-06T18:07:06.131Z,37.50
2022-09-06T18:09:34.567Z,38.40
2022-09-06T18:12:03.016Z,37.70
2022-09-06T18:14:31.332Z,37.90
2022-09-06T18:16:59.900Z,37.30
2022-09-06T18:19:29.939Z,37.20
2022-09-06T18:21:58.441Z,37.30
2022-09-06T18:24:27.193Z,36.50
2022-09-06T18:26:55.690Z,36.20
2022-09-06T18:29:24.082Z,36.50
2022-09-06T18:31:54.137Z,37.20
2022-09-06T18:34:22.734Z,37.30
2022-09-06T18:36:52.589Z,37.10
2022-09-06T18:39:21.165Z,37.30
2022-09-06T18:42:01.316Z,37.10
2022-09-06T18:44:32.422Z,37.00
2022-09-06T18:47:02.364Z,37.60
2022-09-06T18:49:32.520Z,37.50
2022-09-06T18:52:02.689Z,37.60
2022-09-06T18:54:31.576Z,37.70
2022-09-06T18:57:00.388Z,37.90
2022-09-06T18:59:29.243Z,38.30
2022-09-06T19:01:58.047Z,38.30
2022-09-06T19:04:26.635Z,38.40
2022-09-06T19:06:54.984Z,39.00
2022-09-06T19:09:25.165Z,38.70
2022-09-06T19:11:53.865Z,38.60
2022-09-06T19:14:23.476Z,39.70
2022-09-06T19:16:54.269Z,39.70
2022-09-06T19:19:23.320Z,40.50
2022-09-06T19:21:51.790Z,40.00
2022-09-06T19:24:22.614Z,40.00
2022-09-06T19:26:52.968Z,39.70
2022-09-06T19:29:21.824Z,39.30
2022-09-06T19:31:50.551Z,39.30
2022-09-06T19:34:19.207Z,39.20
2022-09-06T19:36:48.885Z,41.70
2022-09-06T19:39:17.934Z,41.50
2022-09-06T19:41:47.689Z,41.40
2022-09-06T19:44:20.751Z,41.20
2022-09-06T19:46:49.684Z,40.50
2022-09-06T19:49:20.182Z,39.90
2022-09-06T19:51:50.849Z,40.00
2022-09-06T19:54:20.422Z,40.30
2022-09-06T19:56:48.895Z,40.70
2022-09-06T19:59:19.288Z,41.00
2022-09-06T20:01:48.383Z,41.70
2022-09-06T20:04:20.055Z,42.10
2022-09-06T20:06:48.714Z,42.30
2022-09-06T20:09:17.401Z,42.50
2022-09-06T20:11:46.506Z,43.20
2022-09-06T20:14:14.951Z,43.90
2022-09-06T20:16:45.503Z,44.70
2022-09-06T20:19:15.219Z,45.10
2022-09-06T20:21:44.373Z,45.70
2022-09-06T20:24:12.805Z,46.20
2022-09-06T20:26:41.472Z,46.60
2022-09-06T20:29:10.379Z,46.90
2022-09-06T20:31:39.728Z,47.50
2022-09-06T20:34:09.503Z,47.60
2022-09-06T20:36:38.023Z,47.60
2022-09-06T20:39:06.350Z,47.60
2022-09-06T20:41:35.219Z,47.90
2022-09-06T20:44:04.014Z,48.40
2022-09-06T20:46:33.989Z,48.50
2022-09-06T20:49:04.722Z,48.80
2022-09-06T20:51:37.260Z,49.40
2022-09-06T20:54:06.983Z,49.40
2022-09-06T20:56:37.707Z,49.30
2022-09-06T20:59:08.635Z,49.80
2022-09-06T21:01:40.318Z,50.10
2022-09-06T21:04:10.315Z,50.40
2022-09-06T21:06:41.332Z,50.30
2022-09-06T21:09:12.363Z,50.80
2022-09-06T21:11:41.551Z,51.30
2022-09-06T21:14:10.923Z,52.20
2022-09-06T21:16:40.595Z,52.10
2022-09-06T21:19:10.782Z,51.70
2022-09-06T21:21:41.159Z,52.20
2022-09-06T21:24:10.434Z,53.70
2022-09-06T21:26:38.914Z,52.80
2022-09-06T21:29:07.239Z,53.40
2022-09-06T21:31:37.136Z,53.50
2022-09-06T21:34:11.451Z,53.20
2022-09-06T21:36:44.540Z,52.90
2022-09-06T21:39:13.447Z,53.20
2022-09-06T21:41:43.454Z,53.70
2022-09-06T21:44:12.770Z,53.40
2022-09-06T21:46:41.917Z,54.20
2022-09-06T21:49:12.503Z,54.90
2022-09-06T21:51:41.653Z,55.50
2022-09-06T21:54:11.828Z,55.00
2022-09-06T21:56:41.037Z,57.70
2022-09-06T21:59:09.773Z,59.00
2022-09-06T22:01:39.842Z,58.30
2022-09-06T22:04:08.807Z,58.20
2022-09-06T22:06:37.871Z,58.90
2022-09-06T22:09:10.823Z,60.40
2022-09-06T22:11:42.138Z,59.50
2022-09-06T22:14:11.788Z,57.10
2022-09-06T22:16:41.588Z,56.60
2022-09-06T22:19:11.066Z,57.10
2022-09-06T22:21:39.935Z,57.30
2022-09-06T22:24:10.146Z,57.20
2022-09-06T22:26:41.522Z,56.90
2022-09-06T22:29:11.928Z,56.90
2022-09-06T22:31:40.923Z,57.30
2022-09-06T22:34:10.402Z,56.70
2022-09-06T22:36:38.821Z,56.60
2022-09-06T22:39:07.183Z,56.60
2022-09-06T22:41:35.515Z,57.10
2022-09-06T22:44:06.103Z,58.30
2022-09-06T22:46:34.676Z,57.30
2022-09-06T22:49:04.159Z,56.90
2022-09-06T22:51:32.644Z,57.80
2022-09-06T22:54:00.967Z,58.80
2022-09-06T22:56:29.417Z,57.90
2022-09-06T22:58:57.754Z,59.20
2022-09-06T23:01:27.793Z,58.70
2022-09-06T23:03:56.355Z,57.60
2022-09-06T23:06:24.696Z,57.20
2022-09-06T23:08:52.993Z,56.40
2022-09-06T23:11:21.463Z,56.30
2022-09-06T23:13:49.927Z,56.40
2022-09-06T23:16:19.804Z,59.00
2022-09-06T23:18:49.737Z,60.70
2022-09-06T23:21:20.056Z,64.40
2022-09-06T23:23:49.471Z,68.90
2022-09-06T23:26:19.938Z,72.40
2022-09-06T23:28:51.319Z,71.30
2022-09-06T23:31:19.836Z,70.00
2022-09-06T23:33:53.355Z,69.60
2022-09-06T23:36:21.892Z,70.20
2022-09-06T23:38:50.755Z,67.60
2022-09-06T23:41:19.158Z,70.60
2022-09-06T23:43:47.422Z,68.40
2022-09-06T23:46:16.243Z,66.80
2022-09-06T23:48:44.958Z,65.00
2022-09-06T23:51:15.149Z,64.70
2022-09-06T23:53:43.462Z,63.50
2022-09-06T23:56:12.331Z,63.10
2022-09-06T23:58:40.920Z,64.30
